Date,TemperatureHighF,TemperatureAvgF,TemperatureLowF,DewpointHighF,DewpointAvgF,DewpointLowF,HumidityHigh,HumidityAvg,HumidityLow,PressureMaxIn,PressureMinIn,WindSpeedMaxMPH,WindSpeedAvgMPH,GustSpeedMaxMPH,PrecipitationSumIn
2013-6-1,82,72,63,65,62,58,88,70,55,28.85,28.69,21,5,21,0.00
2013-6-2,70,66,62,60,57,55,83,73,61,28.81,28.66,21,6,21,0.00
2013-6-3,75,56,40,44,39,34,79,56,36,29.07,28.99,8,2,8,0.00
2013-6-4,77,61,44,47,42,34,80,54,37,29.18,29.08,1,0,1,0.00
2013-6-5,74,62,49,46,40,32,58,47,37,29.17,29.00,9,3,9,0.00
2013-6-6,67,61,55,52,47,40,72,60,56,29.00,28.86,12,4,12,0.00
2013-6-7,65,56,50,52,48,44,84,75,63,28.91,28.86,12,1,12,0.00
2013-6-8,80,66,55,55,51,47,78,60,41,29.06,28.90,9,0,9,0.00
2013-6-9,77,70,56,58,54,49,79,57,47,29.11,28.95,17,6,17,0.00
2013-6-10,77,66,60,66,60,50,87,81,59,28.95,28.73,8,1,8,0.00
2013-6-11,84,71,62,64,61,58,89,73,52,28.89,28.77,7,2,7,0.00
2013-6-12,76,69,60,64,61,54,85,76,69,28.92,28.66,8,1,8,0.00
2013-6-13,77,70,61,61,56,54,88,65,46,28.92,28.59,15,3,15,0.00
2013-6-14,82,68,56,55,52,47,80,58,37,29.08,28.93,12,1,12,0.00
2013-6-15,82,72,55,61,58,48,83,63,47,29.08,28.92,9,1,9,0.00
2013-6-16,87,75,63,65,61,51,87,63,37,28.90,28.77,12,4,12,0.00
2013-6-17,88,76,56,63,58,49,79,56,38,28.93,28.83,10,2,10,0.00
2013-6-18,74,65,53,54,49,38,84,58,37,29.07,28.90,11,4,11,0.00
2013-6-19,88,68,47,56,48,37,73,50,33,29.16,29.07,9,1,9,0.00
2013-6-20,94,74,52,60,54,45,78,52,32,29.21,29.13,8,1,8,0.00
2013-6-21,88,76,57,67,59,48,75,57,44,29.20,29.06,8,2,8,0.00
2013-6-22,92,82,69,73,67,56,75,61,51,29.09,28.99,9,2,9,0.00
2013-6-23,97,86,68,70,67,63,84,56,40,29.06,28.96,13,3,13,0.00
2013-6-24,94,81,68,70,66,61,80,62,45,29.07,28.92,14,2,14,0.00
2013-6-25,86,74,66,70,65,60,86,74,60,28.98,28.83,8,1,8,0.00
2013-6-26,94,78,63,73,66,59,87,67,50,28.87,28.76,8,1,8,0.00
2013-6-27,88,75,66,71,66,60,86,75,55,28.77,28.66,17,1,17,0.00
2013-6-28,81,70,64,65,62,58,89,77,56,28.64,28.54,15,2,15,0.00
2013-6-29,77,70,62,61,59,55,87,70,56,28.74,28.56,13,2,13,0.00
2013-6-30,79,73,61,60,57,44,79,59,47,28.94,28.75,13,4,13,0.00